createdAt,value
2017-09-28T00:02:26.853Z,71.90
2017-09-28T00:04:54.337Z,71.80
2017-09-28T00:07:21.898Z,71.80
2017-09-28T00:09:50.153Z,71.50
2017-09-28T00:12:17.661Z,71.50
2017-09-28T00:14:45.908Z,71.70
2017-09-28T00:17:14.268Z,71.70
2017-09-28T00:19:41.748Z,71.70
2017-09-28T00:22:09.997Z,72.00
2017-09-28T00:24:37.491Z,72.20
2017-09-28T00:27:04.948Z,72.20
2017-09-28T00:29:33.240Z,72.10
2017-09-28T00:32:00.699Z,72.20
2017-09-28T00:34:28.357Z,72.30
2017-09-28T00:36:55.833Z,72.40
2017-09-28T00:39:23.310Z,72.20
2017-09-28T00:41:50.802Z,72.50
2017-09-28T00:44:18.276Z,72.30
2017-09-28T00:46:45.775Z,72.30
2017-09-28T00:49:13.237Z,72.10
2017-09-28T00:51:40.783Z,71.90
2017-09-28T00:54:08.239Z,71.90
2017-09-28T00:56:36.507Z,71.60
2017-09-28T00:59:04.007Z,71.70
2017-09-28T01:01:31.472Z,71.70
2017-09-28T01:03:58.986Z,71.70
2017-09-28T01:06:27.243Z,71.60
2017-09-28T01:08:54.713Z,71.60
2017-09-28T01:11:22.304Z,71.40
2017-09-28T01:13:49.760Z,71.40
2017-09-28T01:16:17.221Z,71.30
2017-09-28T01:18:45.495Z,71.10
2017-09-28T01:21:12.956Z,71.10
2017-09-28T01:23:41.208Z,71.30
2017-09-28T01:26:09.439Z,71.10
2017-09-28T01:28:37.025Z,71.10
2017-09-28T01:31:04.507Z,71.10
2017-09-28T01:33:31.975Z,71.10
2017-09-28T01:36:00.220Z,70.90
2017-09-28T01:38:27.688Z,71.20
2017-09-28T01:40:55.179Z,71.20
2017-09-28T01:43:22.666Z,71.20
2017-09-28T01:45:50.125Z,71.00
2017-09-28T01:48:17.604Z,71.30
2017-09-28T01:50:45.829Z,71.30
2017-09-28T01:53:13.303Z,71.30
2017-09-28T01:55:40.765Z,71.10
2017-09-28T01:58:08.986Z,70.90
2017-09-28T02:00:36.477Z,70.90
2017-09-28T02:03:04.715Z,70.50
2017-09-28T02:05:32.955Z,70.30
2017-09-28T02:08:00.420Z,71.10
2017-09-28T02:10:27.994Z,70.60
2017-09-28T02:12:55.498Z,70.60
2017-09-28T02:15:22.966Z,70.80
2017-09-28T02:17:51.219Z,70.90
2017-09-28T02:20:18.682Z,70.80
2017-09-28T02:22:46.181Z,70.60
2017-09-28T02:25:13.672Z,70.80
2017-09-28T02:27:41.937Z,70.80
2017-09-28T02:30:09.405Z,70.90
2017-09-28T02:32:36.861Z,70.90
2017-09-28T02:35:05.120Z,71.10
2017-09-28T02:37:32.593Z,71.10
2017-09-28T02:40:00.089Z,71.30
2017-09-28T02:42:27.568Z,71.30
2017-09-28T02:44:55.065Z,71.30
2017-09-28T02:47:22.539Z,71.30
2017-09-28T02:49:50.004Z,71.30
2017-09-28T02:52:17.491Z,71.30
2017-09-28T02:54:45.000Z,71.30
2017-09-28T02:57:13.420Z,71.20
2017-09-28T02:59:41.668Z,71.30
2017-09-28T03:02:09.909Z,71.40
2017-09-28T03:04:37.396Z,71.40
2017-09-28T03:07:04.913Z,71.50
2017-09-28T03:09:32.413Z,71.20
2017-09-28T03:11:59.883Z,71.50
2017-09-28T03:14:27.412Z,71.50
2017-09-28T03:16:54.866Z,71.40
2017-09-28T03:19:22.318Z,71.50
2017-09-28T03:21:49.826Z,71.50
2017-09-28T03:24:18.074Z,71.50
2017-09-28T03:26:45.570Z,71.50
2017-09-28T03:29:13.801Z,70.90
2017-09-28T03:31:41.312Z,70.80
2017-09-28T03:34:08.766Z,70.50
2017-09-28T03:36:36.335Z,70.50
2017-09-28T03:39:03.820Z,70.70
2017-09-28T03:41:32.107Z,70.70
2017-09-28T03:44:00.365Z,70.40
2017-09-28T03:46:27.837Z,70.40
2017-09-28T03:48:55.336Z,70.40
2017-09-28T03:51:22.804Z,70.50
2017-09-28T03:53:50.397Z,70.30
2017-09-28T03:56:17.874Z,70.40
2017-09-28T03:58:46.121Z,70.60
2017-09-28T04:01:14.359Z,70.60
2017-09-28T04:03:41.834Z,70.40
2017-09-28T04:06:09.312Z,70.50
2017-09-28T04:08:36.775Z,70.90
2017-09-28T04:11:04.300Z,71.00
2017-09-28T04:13:31.760Z,71.10
2017-09-28T04:16:00.009Z,71.40
2017-09-28T04:18:27.493Z,71.30
2017-09-28T04:20:54.958Z,71.40
2017-09-28T04:23:22.544Z,71.70
2017-09-28T04:25:50.027Z,71.50
2017-09-28T04:28:18.429Z,71.60
2017-09-28T04:30:47.019Z,72.30
2017-09-28T04:33:14.497Z,71.70
2017-09-28T04:35:41.964Z,71.90
2017-09-28T04:38:09.441Z,71.80
2017-09-28T04:40:36.918Z,71.80
2017-09-28T04:43:04.401Z,71.90
2017-09-28T04:45:31.885Z,71.90
2017-09-28T04:47:59.397Z,71.70
2017-09-28T04:50:26.866Z,71.80
2017-09-28T04:52:54.345Z,71.90
2017-09-28T04:55:21.848Z,72.00
2017-09-28T04:57:49.320Z,72.00
2017-09-28T05:00:16.893Z,71.60
2017-09-28T05:02:45.156Z,71.80
2017-09-28T05:05:12.628Z,71.80
2017-09-28T05:07:40.137Z,71.70
2017-09-28T05:10:07.646Z,71.50
2017-09-28T05:12:35.253Z,71.60
2017-09-28T05:15:02.758Z,71.60
2017-09-28T05:17:30.245Z,71.60
2017-09-28T05:19:57.836Z,71.50
2017-09-28T05:22:26.102Z,71.70
2017-09-28T05:24:53.584Z,71.50
2017-09-28T05:27:21.086Z,72.00
2017-09-28T05:29:48.604Z,70.50
2017-09-28T05:32:16.846Z,70.50
2017-09-28T05:34:44.476Z,70.60
2017-09-28T05:37:12.781Z,70.60
2017-09-28T05:39:41.024Z,70.30
2017-09-28T05:42:09.471Z,70.30
2017-09-28T05:44:36.938Z,69.50
2017-09-28T05:47:04.494Z,69.10
2017-09-28T05:49:32.022Z,69.10
2017-09-28T05:51:59.493Z,68.80
2017-09-28T05:54:27.037Z,68.20
2017-09-28T05:56:55.288Z,67.50
2017-09-28T05:59:22.982Z,67.50
2017-09-28T06:01:50.459Z,67.60
2017-09-28T06:04:17.921Z,67.40
2017-09-28T06:06:45.511Z,67.40
2017-09-28T06:09:13.008Z,66.80
2017-09-28T06:11:40.481Z,66.00
2017-09-28T06:14:07.987Z,65.30
2017-09-28T06:16:35.506Z,65.10
2017-09-28T06:19:03.863Z,63.90
2017-09-28T06:21:31.353Z,64.00
2017-09-28T06:23:58.820Z,63.90
2017-09-28T06:26:26.309Z,63.30
2017-09-28T06:28:53.782Z,62.70
2017-09-28T06:31:21.272Z,62.60
2017-09-28T06:33:48.744Z,62.20
2017-09-28T06:36:16.254Z,61.90
2017-09-28T06:38:43.749Z,62.00
2017-09-28T06:41:11.217Z,61.30
2017-09-28T06:43:38.701Z,61.10
2017-09-28T06:46:06.241Z,60.70
2017-09-28T06:48:33.773Z,60.40
2017-09-28T06:51:01.307Z,59.90
2017-09-28T06:53:28.804Z,59.60
2017-09-28T06:55:56.514Z,60.00
2017-09-28T06:58:24.149Z,59.70
2017-09-28T07:00:52.408Z,58.60
2017-09-28T07:03:19.907Z,58.60
2017-09-28T07:05:47.498Z,58.20
2017-09-28T07:08:15.003Z,58.20
2017-09-28T07:10:42.477Z,57.70
2017-09-28T07:13:10.761Z,58.20
2017-09-28T07:15:38.252Z,58.20
2017-09-28T07:18:06.584Z,58.00
2017-09-28T07:20:34.214Z,58.00
2017-09-28T07:23:01.673Z,58.00
2017-09-28T07:25:29.276Z,57.70
2017-09-28T07:27:56.750Z,57.60
2017-09-28T07:30:24.333Z,57.50
2017-09-28T07:32:51.816Z,57.60
2017-09-28T07:35:19.429Z,57.70
2017-09-28T07:37:46.924Z,57.50
2017-09-28T07:40:14.463Z,57.70
2017-09-28T07:42:41.960Z,57.30
2017-09-28T07:45:09.440Z,57.50
2017-09-28T07:47:36.929Z,57.20
2017-09-28T07:50:04.440Z,57.00
2017-09-28T07:52:31.927Z,56.70
2017-09-28T07:55:00.286Z,56.70
2017-09-28T07:57:27.856Z,56.60
2017-09-28T07:59:55.334Z,56.50
2017-09-28T08:02:22.844Z,56.60
2017-09-28T08:04:50.316Z,56.10
2017-09-28T08:07:17.807Z,56.10
2017-09-28T08:09:45.431Z,56.00
2017-09-28T08:12:13.658Z,55.80
2017-09-28T08:14:41.173Z,55.80
2017-09-28T08:17:08.643Z,55.70
2017-09-28T08:19:36.112Z,54.90
2017-09-28T08:22:03.625Z,55.00
2017-09-28T08:24:31.126Z,55.40
2017-09-28T08:26:58.707Z,55.30
2017-09-28T08:29:26.181Z,54.80
2017-09-28T08:31:53.644Z,54.60
2017-09-28T08:34:21.147Z,54.00
2017-09-28T08:36:48.624Z,53.80
2017-09-28T08:39:16.105Z,53.60
2017-09-28T08:41:43.596Z,53.60
2017-09-28T08:44:11.077Z,53.70
2017-09-28T08:46:38.590Z,53.80
2017-09-28T08:49:06.828Z,52.90
2017-09-28T08:51:34.293Z,53.00
2017-09-28T08:54:01.818Z,53.40
2017-09-28T08:56:29.313Z,52.80
2017-09-28T08:58:56.907Z,52.70
2017-09-28T09:01:24.376Z,52.60
2017-09-28T09:03:51.822Z,52.70
2017-09-28T09:06:19.311Z,52.80
2017-09-28T09:08:46.853Z,52.90
2017-09-28T09:11:15.212Z,52.70
2017-09-28T09:13:42.710Z,52.70
2017-09-28T09:16:10.184Z,52.20
2017-09-28T09:18:37.692Z,51.50
2017-09-28T09:21:05.911Z,51.30
2017-09-28T09:23:33.397Z,51.40
2017-09-28T09:26:00.907Z,51.30
2017-09-28T09:28:28.392Z,51.60
2017-09-28T09:30:55.885Z,52.00
2017-09-28T09:33:23.366Z,52.20
2017-09-28T09:35:50.856Z,51.70
2017-09-28T09:38:18.408Z,51.60
2017-09-28T09:40:45.991Z,51.60
2017-09-28T09:43:13.462Z,51.30
2017-09-28T09:45:40.941Z,51.10
2017-09-28T09:48:08.577Z,51.00
2017-09-28T09:50:36.035Z,50.90
2017-09-28T09:53:03.490Z,50.20
2017-09-28T09:55:30.973Z,49.80
2017-09-28T09:57:58.462Z,50.20
2017-09-28T10:00:25.965Z,50.30
2017-09-28T10:02:53.464Z,49.90
2017-09-28T10:05:21.062Z,50.30
2017-09-28T10:08:07.267Z,50.10
2017-09-28T10:10:41.520Z,50.50
2017-09-28T10:13:11.115Z,50.30
2017-09-28T10:15:40.377Z,49.60
2017-09-28T10:18:08.000Z,48.90
2017-09-28T10:20:36.238Z,48.70
2017-09-28T10:23:03.722Z,48.80
2017-09-28T10:25:31.196Z,48.40
2017-09-28T10:27:58.695Z,47.50
2017-09-28T10:30:26.287Z,47.10
2017-09-28T10:32:53.777Z,46.80
2017-09-28T10:35:21.261Z,46.70
2017-09-28T10:37:48.865Z,46.90
2017-09-28T10:40:16.380Z,46.50
2017-09-28T10:42:43.931Z,46.50
2017-09-28T10:45:11.394Z,46.60
2017-09-28T10:47:38.880Z,46.90
2017-09-28T10:50:06.353Z,46.60
2017-09-28T10:52:33.840Z,45.60
2017-09-28T10:55:01.329Z,45.00
2017-09-28T10:57:28.842Z,44.90
2017-09-28T10:59:56.326Z,45.50
2017-09-28T11:02:23.798Z,45.40
2017-09-28T11:04:51.280Z,46.10
2017-09-28T11:07:18.764Z,46.30
2017-09-28T11:09:46.335Z,45.70
2017-09-28T11:12:13.843Z,46.00
2017-09-28T11:14:41.349Z,46.40
2017-09-28T11:17:09.597Z,46.80
2017-09-28T11:19:37.088Z,46.90
2017-09-28T11:22:04.547Z,47.40
2017-09-28T11:24:32.036Z,46.90
2017-09-28T11:26:59.508Z,47.30
2017-09-28T11:29:26.989Z,47.20
2017-09-28T11:31:54.480Z,47.20
2017-09-28T11:34:21.971Z,46.00
2017-09-28T11:36:49.470Z,45.80
2017-09-28T11:39:16.970Z,46.20
2017-09-28T11:41:44.450Z,46.50
2017-09-28T11:44:11.918Z,46.80
2017-09-28T11:46:39.427Z,45.80
2017-09-28T11:49:06.896Z,45.90
2017-09-28T11:51:34.410Z,45.10
2017-09-28T11:54:01.864Z,46.30
2017-09-28T11:56:29.430Z,46.40
2017-09-28T11:58:56.932Z,46.40
2017-09-28T12:01:24.429Z,46.70
2017-09-28T12:03:51.950Z,46.70
2017-09-28T12:06:19.426Z,46.30
2017-09-28T12:08:46.937Z,46.40
2017-09-28T12:11:14.402Z,46.80
2017-09-28T12:13:41.892Z,46.40
2017-09-28T12:16:09.362Z,46.60
2017-09-28T12:18:36.864Z,47.30
2017-09-28T12:21:04.377Z,48.00
2017-09-28T12:23:31.864Z,47.50
2017-09-28T12:25:59.345Z,48.00
2017-09-28T12:28:26.812Z,47.50
2017-09-28T12:30:54.316Z,47.10
2017-09-28T12:33:21.774Z,47.10
2017-09-28T12:35:49.329Z,46.70
2017-09-28T12:38:16.828Z,46.20
2017-09-28T12:40:44.321Z,46.60
2017-09-28T12:43:11.915Z,45.70
2017-09-28T12:45:39.390Z,46.10
2017-09-28T12:48:06.971Z,46.30
2017-09-28T12:50:34.571Z,46.30
2017-09-28T12:53:02.066Z,46.40
2017-09-28T12:55:29.546Z,46.20
2017-09-28T12:57:57.809Z,46.40
2017-09-28T13:00:25.331Z,46.50
2017-09-28T13:02:52.830Z,46.20
2017-09-28T13:05:21.112Z,46.20
2017-09-28T13:07:48.738Z,46.30
2017-09-28T13:10:16.233Z,46.40
2017-09-28T13:12:43.704Z,45.70
2017-09-28T13:15:11.955Z,45.50
2017-09-28T13:17:39.433Z,45.50
2017-09-28T13:20:06.936Z,45.10
2017-09-28T13:22:34.449Z,45.50
2017-09-28T13:25:02.671Z,45.70
2017-09-28T13:27:30.154Z,45.70
2017-09-28T13:29:57.730Z,45.80
2017-09-28T13:32:25.187Z,46.20
2017-09-28T13:34:53.423Z,47.00
2017-09-28T13:37:20.958Z,47.00
2017-09-28T13:39:48.458Z,47.20
2017-09-28T13:42:16.719Z,47.50
2017-09-28T13:44:44.171Z,47.60
2017-09-28T13:47:11.661Z,47.60
2017-09-28T13:49:39.144Z,47.50
2017-09-28T13:52:06.657Z,47.70
2017-09-28T13:54:34.172Z,47.60
2017-09-28T13:57:02.415Z,47.50
2017-09-28T13:59:29.920Z,47.50
2017-09-28T14:02:15.195Z,47.50
2017-09-28T14:04:42.669Z,47.20
2017-09-28T14:07:10.143Z,47.20
2017-09-28T14:09:37.738Z,47.30
2017-09-28T14:12:05.302Z,47.40
2017-09-28T14:14:33.549Z,47.20
2017-09-28T14:17:01.098Z,47.10
2017-09-28T14:19:29.349Z,47.80
2017-09-28T14:21:56.833Z,47.80
2017-09-28T14:24:24.336Z,48.00
2017-09-28T14:26:51.811Z,47.50
2017-09-28T14:29:19.313Z,47.70
2017-09-28T14:31:47.271Z,47.50
2017-09-28T14:34:14.756Z,48.40
2017-09-28T14:36:42.329Z,47.60
2017-09-28T14:39:09.803Z,47.40
2017-09-28T14:41:37.295Z,47.70
2017-09-28T14:44:04.774Z,48.20
2017-09-28T14:46:32.314Z,47.60
2017-09-28T14:48:59.815Z,47.60
2017-09-28T14:51:27.289Z,47.60
2017-09-28T14:53:54.824Z,47.80
2017-09-28T14:56:22.331Z,48.20
2017-09-28T14:58:49.791Z,48.50
2017-09-28T15:01:17.371Z,48.70
2017-09-28T15:03:44.847Z,48.90
2017-09-28T15:06:12.341Z,49.00
2017-09-28T15:08:39.829Z,48.80
2017-09-28T15:11:07.372Z,48.50
2017-09-28T15:13:34.826Z,48.30
2017-09-28T15:16:02.308Z,48.80
2017-09-28T15:18:29.767Z,48.90
2017-09-28T15:20:57.259Z,49.50
2017-09-28T15:23:24.745Z,50.00
2017-09-28T15:25:53.153Z,49.90
2017-09-28T15:28:21.416Z,49.70
2017-09-28T15:30:48.905Z,49.80
2017-09-28T15:33:16.407Z,49.90
2017-09-28T15:35:43.888Z,50.20
2017-09-28T15:38:11.356Z,50.30
2017-09-28T15:40:38.887Z,50.80
2017-09-28T15:43:07.124Z,51.00
2017-09-28T15:45:34.710Z,51.10
2017-09-28T15:48:02.203Z,51.30
2017-09-28T15:50:29.778Z,51.60
2017-09-28T15:52:57.306Z,51.80
2017-09-28T15:55:24.755Z,52.00
2017-09-28T15:57:52.262Z,52.60
2017-09-28T16:00:19.748Z,53.00
2017-09-28T16:02:47.357Z,53.40
2017-09-28T16:05:14.935Z,53.60
2017-09-28T16:07:43.177Z,54.20
2017-09-28T16:10:10.669Z,54.00
2017-09-28T16:12:38.154Z,54.00
2017-09-28T16:15:05.862Z,54.20
2017-09-28T16:17:33.496Z,54.20
2017-09-28T16:20:00.964Z,54.20
2017-09-28T16:22:28.595Z,54.10
2017-09-28T16:24:56.188Z,54.30
2017-09-28T16:27:23.649Z,54.50
2017-09-28T16:29:51.124Z,54.70
2017-09-28T16:32:18.689Z,54.40
2017-09-28T16:34:46.167Z,54.90
2017-09-28T16:37:13.654Z,54.90
2017-09-28T16:39:41.886Z,55.00
2017-09-28T16:42:09.412Z,55.10
2017-09-28T16:44:36.871Z,55.10
2017-09-28T16:47:04.367Z,55.40
2017-09-28T16:49:31.891Z,55.10
2017-09-28T16:51:59.346Z,55.10
2017-09-28T16:54:27.600Z,55.00
2017-09-28T16:56:55.136Z,55.30
2017-09-28T16:59:22.744Z,55.30
2017-09-28T17:01:50.212Z,55.50
2017-09-28T17:04:18.440Z,55.80
2017-09-28T17:06:45.958Z,55.80
2017-09-28T17:09:13.474Z,56.20
2017-09-28T17:11:41.016Z,56.30
2017-09-28T17:14:08.540Z,56.30
2017-09-28T17:16:36.007Z,56.50
2017-09-28T17:19:03.535Z,56.60
2017-09-28T17:21:31.021Z,56.70
2017-09-28T17:23:58.613Z,56.90
2017-09-28T17:26:26.105Z,56.80
2017-09-28T17:28:53.575Z,56.90
2017-09-28T17:31:21.070Z,57.10
2017-09-28T17:33:48.752Z,57.50
2017-09-28T17:36:16.158Z,57.80
2017-09-28T17:38:43.647Z,57.70
2017-09-28T17:41:11.142Z,57.50
2017-09-28T17:43:39.510Z,57.80
2017-09-28T17:46:07.030Z,57.80
2017-09-28T17:48:35.274Z,58.10
2017-09-28T17:51:02.786Z,58.10
2017-09-28T17:53:30.259Z,58.20
2017-09-28T17:55:57.730Z,58.20
2017-09-28T17:58:25.427Z,58.40
2017-09-28T18:00:52.914Z,58.60
2017-09-28T18:03:20.403Z,58.80
2017-09-28T18:05:48.017Z,59.10
2017-09-28T18:08:15.502Z,59.10
2017-09-28T18:10:43.123Z,59.40
2017-09-28T18:13:10.616Z,59.50
2017-09-28T18:15:38.102Z,59.80
2017-09-28T18:18:05.699Z,59.80
2017-09-28T18:20:34.087Z,59.80
2017-09-28T18:23:01.580Z,60.00
2017-09-28T18:25:29.099Z,60.20
2017-09-28T18:27:56.583Z,60.30
2017-09-28T18:30:24.081Z,60.50
2017-09-28T18:32:52.366Z,60.90
2017-09-28T18:35:19.870Z,60.90
2017-09-28T18:37:47.362Z,61.00
2017-09-28T18:40:14.846Z,61.40
2017-09-28T18:42:42.331Z,61.70
2017-09-28T18:45:09.814Z,61.80
2017-09-28T18:47:37.293Z,61.90
2017-09-28T18:50:04.767Z,62.00
2017-09-28T18:52:32.263Z,62.20
2017-09-28T18:54:59.897Z,62.60
2017-09-28T18:57:27.378Z,62.50
2017-09-28T18:59:54.894Z,62.70
2017-09-28T19:02:23.132Z,62.80
2017-09-28T19:04:50.646Z,62.80
2017-09-28T19:07:18.134Z,62.70
2017-09-28T19:09:45.662Z,63.00
2017-09-28T19:12:13.158Z,63.20
2017-09-28T19:14:40.625Z,63.40
2017-09-28T19:17:08.218Z,64.30
2017-09-28T19:19:35.701Z,63.60
2017-09-28T19:22:03.269Z,63.60
2017-09-28T19:24:31.534Z,64.00
2017-09-28T19:26:58.998Z,63.70
2017-09-28T19:29:26.483Z,64.30
2017-09-28T19:31:53.962Z,64.10
2017-09-28T19:34:21.472Z,64.40
2017-09-28T19:36:48.954Z,64.80
2017-09-28T19:39:16.411Z,65.10
2017-09-28T19:41:43.889Z,65.20
2017-09-28T19:44:11.354Z,65.20
2017-09-28T19:46:38.835Z,65.30
2017-09-28T19:49:06.542Z,65.50
2017-09-28T19:51:34.139Z,65.70
2017-09-28T19:54:01.656Z,65.90
2017-09-28T19:56:29.151Z,66.10
2017-09-28T19:58:57.405Z,66.20
2017-09-28T20:01:24.945Z,66.20
2017-09-28T20:03:52.448Z,66.10
2017-09-28T20:06:19.914Z,66.00
2017-09-28T20:08:47.533Z,66.00
2017-09-28T20:11:15.025Z,65.80
2017-09-28T20:13:42.490Z,66.00
2017-09-28T20:16:11.025Z,65.70
2017-09-28T20:18:38.499Z,66.50
2017-09-28T20:21:06.114Z,65.70
2017-09-28T20:23:34.508Z,65.90
2017-09-28T20:26:01.993Z,65.70
2017-09-28T20:28:29.549Z,66.20
2017-09-28T20:30:57.051Z,65.80
2017-09-28T20:33:24.616Z,65.90
2017-09-28T20:35:52.096Z,65.90
2017-09-28T20:38:19.586Z,66.10
2017-09-28T20:40:47.091Z,66.00
2017-09-28T20:43:14.551Z,66.50
2017-09-28T20:45:42.123Z,66.50
2017-09-28T20:48:09.591Z,66.40
2017-09-28T20:50:37.060Z,66.70
2017-09-28T20:53:04.650Z,66.70
2017-09-28T20:55:32.121Z,66.20
2017-09-28T20:57:59.597Z,66.20
2017-09-28T21:00:27.311Z,66.70
2017-09-28T21:02:54.793Z,66.60
2017-09-28T21:05:22.271Z,66.80
2017-09-28T21:07:49.779Z,66.50
2017-09-28T21:10:17.253Z,66.70
2017-09-28T21:12:44.802Z,66.90
2017-09-28T21:15:12.270Z,66.80
2017-09-28T21:17:40.506Z,66.90
2017-09-28T21:20:08.013Z,66.90
2017-09-28T21:22:35.525Z,66.90
2017-09-28T21:25:03.016Z,67.10
2017-09-28T21:27:31.276Z,67.30
2017-09-28T21:29:58.874Z,67.30
2017-09-28T21:32:26.425Z,67.20
2017-09-28T21:34:53.893Z,67.30
2017-09-28T21:37:21.374Z,67.20
2017-09-28T21:39:48.953Z,67.30
2017-09-28T21:42:16.428Z,67.40
2017-09-28T21:44:44.670Z,67.70
2017-09-28T21:47:12.159Z,67.60
2017-09-28T21:49:39.637Z,68.00
2017-09-28T21:52:07.126Z,68.30
2017-09-28T21:54:34.620Z,68.50
2017-09-28T21:57:02.103Z,68.80
2017-09-28T21:59:29.748Z,69.00
2017-09-28T22:01:57.230Z,69.00
2017-09-28T22:04:24.710Z,68.60
2017-09-28T22:06:52.224Z,68.80
2017-09-28T22:09:19.696Z,68.70
2017-09-28T22:11:47.285Z,68.90
2017-09-28T22:14:14.751Z,68.90
2017-09-28T22:16:42.207Z,68.90
2017-09-28T22:19:10.485Z,68.60
2017-09-28T22:21:38.038Z,68.60
2017-09-28T22:24:05.673Z,68.60
2017-09-28T22:26:33.337Z,68.60
2017-09-28T22:29:00.810Z,68.60
2017-09-28T22:31:28.382Z,68.60
2017-09-28T22:33:55.857Z,68.70
2017-09-28T22:36:23.459Z,68.60
2017-09-28T22:38:50.937Z,68.70
2017-09-28T22:41:18.390Z,68.80
2017-09-28T22:43:45.924Z,68.70
2017-09-28T22:46:13.398Z,68.80
2017-09-28T22:48:40.874Z,68.70
2017-09-28T22:51:08.382Z,68.70
2017-09-28T22:53:36.641Z,68.80
2017-09-28T22:56:04.236Z,68.70
2017-09-28T22:58:31.713Z,68.70
2017-09-28T23:00:59.181Z,68.60
2017-09-28T23:03:26.756Z,68.70
2017-09-28T23:05:54.236Z,68.60
2017-09-28T23:08:21.712Z,68.70
2017-09-28T23:10:49.271Z,68.60
2017-09-28T23:13:17.499Z,68.80
2017-09-28T23:15:44.963Z,68.80
2017-09-28T23:18:12.461Z,68.70
2017-09-28T23:20:40.050Z,68.60
2017-09-28T23:23:07.536Z,68.80
2017-09-28T23:25:35.021Z,68.80
2017-09-28T23:28:02.517Z,68.80
2017-09-28T23:30:29.987Z,68.90
2017-09-28T23:32:58.231Z,69.00
2017-09-28T23:35:25.685Z,68.80
2017-09-28T23:37:53.931Z,68.50
2017-09-28T23:40:22.175Z,68.80
2017-09-28T23:42:49.652Z,68.50
2017-09-28T23:45:17.999Z,68.80
2017-09-28T23:47:45.456Z,68.90
2017-09-28T23:50:12.929Z,68.90
2017-09-28T23:52:40.419Z,68.80
2017-09-28T23:55:07.898Z,68.90
2017-09-28T23:57:35.409Z,68.90
